sensor_id;sensor_type;location;lat;lon;timestamp;P1;durP1;ratioP1;P2;durP2;ratioP2
34405;SDS011;20658;45.630;8.886;2023-04-21T00:00:24;2.85;;;1.70;;
34405;SDS011;20658;45.630;8.886;2023-04-21T00:02:58;4.45;;;1.80;;
34405;SDS011;20658;45.630;8.886;2023-04-21T00:05:32;4.53;;;2.80;;
34405;SDS011;20658;45.630;8.886;2023-04-21T00:08:05;2.22;;;1.30;;
34405;SDS011;20658;45.630;8.886;2023-04-21T00:10:38;5.47;;;1.30;;
34405;SDS011;20658;45.630;8.886;2023-04-21T00:13:14;5.03;;;1.25;;
34405;SDS011;20658;45.630;8.886;2023-04-21T00:15:47;3.70;;;1.77;;
34405;SDS011;20658;45.630;8.886;2023-04-21T00:18:20;5.05;;;1.23;;
34405;SDS011;20658;45.630;8.886;2023-04-21T00:20:53;3.72;;;1.42;;
34405;SDS011;20658;45.630;8.886;2023-04-21T00:23:27;5.85;;;1.23;;
34405;SDS011;20658;45.630;8.886;2023-04-21T00:26:00;4.70;;;1.00;;
34405;SDS011;20658;45.630;8.886;2023-04-21T00:28:36;5.93;;;1.40;;
34405;SDS011;20658;45.630;8.886;2023-04-21T00:31:09;6.22;;;1.60;;
34405;SDS011;20658;45.630;8.886;2023-04-21T00:33:43;6.80;;;2.20;;
34405;SDS011;20658;45.630;8.886;2023-04-21T00:36:16;6.47;;;2.20;;
34405;SDS011;20658;45.630;8.886;2023-04-21T00:38:49;7.90;;;1.98;;
34405;SDS011;20658;45.630;8.886;2023-04-21T00:41:23;5.32;;;1.50;;
34405;SDS011;20658;45.630;8.886;2023-04-21T00:44:01;6.18;;;1.52;;
34405;SDS011;20658;45.630;8.886;2023-04-21T00:46:36;10.35;;;2.33;;
34405;SDS011;20658;45.630;8.886;2023-04-21T00:49:09;6.82;;;2.10;;
34405;SDS011;20658;45.630;8.886;2023-04-21T00:51:43;4.00;;;1.17;;
34405;SDS011;20658;45.630;8.886;2023-04-21T00:54:17;4.30;;;1.15;;
34405;SDS011;20658;45.630;8.886;2023-04-21T00:56:52;5.13;;;1.05;;
34405;SDS011;20658;45.630;8.886;2023-04-21T00:59:28;3.28;;;1.00;;
34405;SDS011;20658;45.630;8.886;2023-04-21T01:02:02;3.30;;;1.00;;
34405;SDS011;20658;45.630;8.886;2023-04-21T01:04:36;2.80;;;0.80;;
34405;SDS011;20658;45.630;8.886;2023-04-21T01:07:10;3.80;;;0.90;;
34405;SDS011;20658;45.630;8.886;2023-04-21T01:09:44;5.80;;;1.50;;
34405;SDS011;20658;45.630;8.886;2023-04-21T01:12:17;5.70;;;1.58;;
34405;SDS011;20658;45.630;8.886;2023-04-21T01:14:52;6.15;;;1.50;;
34405;SDS011;20658;45.630;8.886;2023-04-21T01:17:25;4.13;;;1.20;;
34405;SDS011;20658;45.630;8.886;2023-04-21T01:19:59;5.35;;;2.42;;
34405;SDS011;20658;45.630;8.886;2023-04-21T01:22:40;8.95;;;3.97;;
34405;SDS011;20658;45.630;8.886;2023-04-21T01:25:17;9.52;;;3.75;;
34405;SDS011;20658;45.630;8.886;2023-04-21T01:27:52;5.97;;;2.35;;
34405;SDS011;20658;45.630;8.886;2023-04-21T01:30:26;6.28;;;2.35;;
34405;SDS011;20658;45.630;8.886;2023-04-21T01:32:57;8.30;;;3.50;;
34405;SDS011;20658;45.630;8.886;2023-04-21T01:35:31;6.85;;;2.92;;
34405;SDS011;20658;45.630;8.886;2023-04-21T01:38:05;9.57;;;3.40;;
34405;SDS011;20658;45.630;8.886;2023-04-21T01:40:39;8.57;;;3.63;;
34405;SDS011;20658;45.630;8.886;2023-04-21T01:43:13;12.65;;;3.45;;
34405;SDS011;20658;45.630;8.886;2023-04-21T01:45:50;6.93;;;3.10;;
34405;SDS011;20658;45.630;8.886;2023-04-21T01:48:24;7.55;;;3.00;;
34405;SDS011;20658;45.630;8.886;2023-04-21T01:50:52;8.70;;;2.13;;
34405;SDS011;20658;45.630;8.886;2023-04-21T01:53:22;4.38;;;1.60;;
34405;SDS011;20658;45.630;8.886;2023-04-21T01:55:57;8.35;;;2.53;;
34405;SDS011;20658;45.630;8.886;2023-04-21T01:58:25;4.28;;;2.53;;
34405;SDS011;20658;45.630;8.886;2023-04-21T02:00:58;6.78;;;2.65;;
34405;SDS011;20658;45.630;8.886;2023-04-21T02:03:27;7.00;;;2.30;;
34405;SDS011;20658;45.630;8.886;2023-04-21T02:05:55;5.18;;;2.03;;
34405;SDS011;20658;45.630;8.886;2023-04-21T02:08:30;5.18;;;1.60;;
34405;SDS011;20658;45.630;8.886;2023-04-21T02:11:00;2.75;;;1.50;;
34405;SDS011;20658;45.630;8.886;2023-04-21T02:13:33;2.85;;;1.25;;
34405;SDS011;20658;45.630;8.886;2023-04-21T02:16:06;4.38;;;2.08;;
34405;SDS011;20658;45.630;8.886;2023-04-21T02:18:35;3.25;;;1.38;;
34405;SDS011;20658;45.630;8.886;2023-04-21T02:21:05;1.35;;;0.93;;
34405;SDS011;20658;45.630;8.886;2023-04-21T02:23:35;3.40;;;1.77;;
34405;SDS011;20658;45.630;8.886;2023-04-21T02:26:08;4.00;;;1.80;;
34405;SDS011;20658;45.630;8.886;2023-04-21T02:28:41;4.10;;;1.65;;
34405;SDS011;20658;45.630;8.886;2023-04-21T02:31:10;3.30;;;1.35;;
34405;SDS011;20658;45.630;8.886;2023-04-21T02:33:44;9.07;;;2.20;;
34405;SDS011;20658;45.630;8.886;2023-04-21T02:36:17;5.95;;;1.90;;
34405;SDS011;20658;45.630;8.886;2023-04-21T02:38:57;4.28;;;1.88;;
34405;SDS011;20658;45.630;8.886;2023-04-21T02:41:25;3.40;;;1.85;;
34405;SDS011;20658;45.630;8.886;2023-04-21T02:43:59;3.33;;;1.48;;
34405;SDS011;20658;45.630;8.886;2023-04-21T02:46:32;4.72;;;1.63;;
34405;SDS011;20658;45.630;8.886;2023-04-21T02:49:06;3.65;;;1.52;;
34405;SDS011;20658;45.630;8.886;2023-04-21T02:51:34;2.85;;;1.20;;
34405;SDS011;20658;45.630;8.886;2023-04-21T02:54:04;2.08;;;1.30;;
34405;SDS011;20658;45.630;8.886;2023-04-21T02:56:32;2.70;;;1.50;;
34405;SDS011;20658;45.630;8.886;2023-04-21T02:59:06;4.07;;;1.08;;
34405;SDS011;20658;45.630;8.886;2023-04-21T03:01:34;4.28;;;1.00;;
34405;SDS011;20658;45.630;8.886;2023-04-21T03:04:02;2.50;;;1.50;;
34405;SDS011;20658;45.630;8.886;2023-04-21T03:06:31;4.22;;;0.93;;
34405;SDS011;20658;45.630;8.886;2023-04-21T03:09:07;3.45;;;0.85;;
34405;SDS011;20658;45.630;8.886;2023-04-21T03:11:40;1.70;;;0.90;;
34405;SDS011;20658;45.630;8.886;2023-04-21T03:14:13;1.88;;;0.65;;
34405;SDS011;20658;45.630;8.886;2023-04-21T03:16:47;3.70;;;0.77;;
34405;SDS011;20658;45.630;8.886;2023-04-21T03:19:15;4.22;;;0.90;;
34405;SDS011;20658;45.630;8.886;2023-04-21T03:21:43;2.53;;;0.50;;
34405;SDS011;20658;45.630;8.886;2023-04-21T03:24:13;1.27;;;0.50;;
34405;SDS011;20658;45.630;8.886;2023-04-21T03:26:42;1.27;;;0.65;;
34405;SDS011;20658;45.630;8.886;2023-04-21T03:29:10;3.53;;;0.47;;
34405;SDS011;20658;45.630;8.886;2023-04-21T03:31:38;1.90;;;0.60;;
34405;SDS011;20658;45.630;8.886;2023-04-21T03:34:07;1.95;;;0.50;;
34405;SDS011;20658;45.630;8.886;2023-04-21T03:36:35;0.85;;;0.60;;
34405;SDS011;20658;45.630;8.886;2023-04-21T03:39:04;2.67;;;1.00;;
34405;SDS011;20658;45.630;8.886;2023-04-21T03:41:34;0.90;;;0.60;;
34405;SDS011;20658;45.630;8.886;2023-04-21T03:44:03;4.57;;;1.15;;
34405;SDS011;20658;45.630;8.886;2023-04-21T03:46:32;1.27;;;0.77;;
34405;SDS011;20658;45.630;8.886;2023-04-21T03:49:00;2.72;;;0.80;;
34405;SDS011;20658;45.630;8.886;2023-04-21T03:51:28;3.28;;;0.85;;
34405;SDS011;20658;45.630;8.886;2023-04-21T03:53:58;1.20;;;0.68;;
34405;SDS011;20658;45.630;8.886;2023-04-21T03:56:26;3.25;;;1.00;;
34405;SDS011;20658;45.630;8.886;2023-04-21T03:59:01;2.63;;;0.82;;
34405;SDS011;20658;45.630;8.886;2023-04-21T04:01:29;2.25;;;1.05;;
34405;SDS011;20658;45.630;8.886;2023-04-21T04:04:03;4.05;;;1.40;;
34405;SDS011;20658;45.630;8.886;2023-04-21T04:06:31;1.73;;;1.00;;
34405;SDS011;20658;45.630;8.886;2023-04-21T04:09:00;3.83;;;1.17;;
34405;SDS011;20658;45.630;8.886;2023-04-21T04:11:29;3.40;;;1.50;;
34405;SDS011;20658;45.630;8.886;2023-04-21T04:13:58;2.00;;;0.88;;
34405;SDS011;20658;45.630;8.886;2023-04-21T04:16:28;3.13;;;1.60;;
34405;SDS011;20658;45.630;8.886;2023-04-21T04:18:57;5.07;;;1.35;;
34405;SDS011;20658;45.630;8.886;2023-04-21T04:21:25;5.13;;;1.88;;
34405;SDS011;20658;45.630;8.886;2023-04-21T04:23:54;4.35;;;1.58;;
34405;SDS011;20658;45.630;8.886;2023-04-21T04:26:23;4.35;;;1.83;;
34405;SDS011;20658;45.630;8.886;2023-04-21T04:28:51;2.97;;;1.00;;
34405;SDS011;20658;45.630;8.886;2023-04-21T04:31:23;6.25;;;1.42;;
34405;SDS011;20658;45.630;8.886;2023-04-21T04:33:51;3.97;;;1.20;;
34405;SDS011;20658;45.630;8.886;2023-04-21T04:36:20;2.28;;;0.82;;
34405;SDS011;20658;45.630;8.886;2023-04-21T04:38:50;3.90;;;1.00;;
34405;SDS011;20658;45.630;8.886;2023-04-21T04:41:19;3.00;;;0.82;;
34405;SDS011;20658;45.630;8.886;2023-04-21T04:43:48;5.05;;;1.23;;
34405;SDS011;20658;45.630;8.886;2023-04-21T04:46:17;2.10;;;0.93;;
34405;SDS011;20658;45.630;8.886;2023-04-21T04:48:52;4.25;;;1.60;;
34405;SDS011;20658;45.630;8.886;2023-04-21T04:51:21;2.10;;;0.90;;
34405;SDS011;20658;45.630;8.886;2023-04-21T04:53:49;3.20;;;1.25;;
34405;SDS011;20658;45.630;8.886;2023-04-21T04:56:17;4.10;;;1.40;;
34405;SDS011;20658;45.630;8.886;2023-04-21T04:58:46;4.57;;;1.30;;
34405;SDS011;20658;45.630;8.886;2023-04-21T05:01:14;2.80;;;1.13;;
34405;SDS011;20658;45.630;8.886;2023-04-21T05:03:44;6.15;;;1.60;;
34405;SDS011;20658;45.630;8.886;2023-04-21T05:06:14;5.18;;;1.60;;
34405;SDS011;20658;45.630;8.886;2023-04-21T05:08:42;9.10;;;2.45;;
34405;SDS011;20658;45.630;8.886;2023-04-21T05:11:11;7.00;;;2.03;;
34405;SDS011;20658;45.630;8.886;2023-04-21T05:13:39;4.35;;;2.05;;
34405;SDS011;20658;45.630;8.886;2023-04-21T05:16:07;7.28;;;2.13;;
34405;SDS011;20658;45.630;8.886;2023-04-21T05:18:41;7.65;;;2.13;;
34405;SDS011;20658;45.630;8.886;2023-04-21T05:21:09;5.18;;;2.10;;
34405;SDS011;20658;45.630;8.886;2023-04-21T05:23:39;6.07;;;1.88;;
34405;SDS011;20658;45.630;8.886;2023-04-21T05:26:08;7.20;;;2.05;;
34405;SDS011;20658;45.630;8.886;2023-04-21T05:28:36;6.47;;;2.25;;
34405;SDS011;20658;45.630;8.886;2023-04-21T05:31:04;4.20;;;1.50;;
34405;SDS011;20658;45.630;8.886;2023-04-21T05:33:33;2.95;;;1.02;;
34405;SDS011;20658;45.630;8.886;2023-04-21T05:36:01;3.95;;;1.45;;
34405;SDS011;20658;45.630;8.886;2023-04-21T05:38:34;3.50;;;1.20;;
34405;SDS011;20658;45.630;8.886;2023-04-21T05:41:04;2.58;;;1.00;;
34405;SDS011;20658;45.630;8.886;2023-04-21T05:43:33;2.20;;;0.88;;
34405;SDS011;20658;45.630;8.886;2023-04-21T05:46:02;1.60;;;0.90;;
34405;SDS011;20658;45.630;8.886;2023-04-21T05:48:35;4.25;;;1.30;;
34405;SDS011;20658;45.630;8.886;2023-04-21T05:51:07;4.03;;;0.82;;
34405;SDS011;20658;45.630;8.886;2023-04-21T05:53:36;2.38;;;0.95;;
34405;SDS011;20658;45.630;8.886;2023-04-21T05:56:08;2.75;;;1.13;;
34405;SDS011;20658;45.630;8.886;2023-04-21T05:58:37;2.97;;;1.10;;
34405;SDS011;20658;45.630;8.886;2023-04-21T06:01:06;2.13;;;1.20;;
34405;SDS011;20658;45.630;8.886;2023-04-21T06:03:35;3.63;;;1.27;;
34405;SDS011;20658;45.630;8.886;2023-04-21T06:06:03;6.28;;;1.25;;
34405;SDS011;20658;45.630;8.886;2023-04-21T06:08:33;2.03;;;1.17;;
34405;SDS011;20658;45.630;8.886;2023-04-21T06:11:01;4.22;;;2.10;;
34405;SDS011;20658;45.630;8.886;2023-04-21T06:13:31;6.20;;;1.60;;
34405;SDS011;20658;45.630;8.886;2023-04-21T06:16:00;4.00;;;1.63;;
34405;SDS011;20658;45.630;8.886;2023-04-21T06:18:28;4.05;;;1.40;;
34405;SDS011;20658;45.630;8.886;2023-04-21T06:20:56;4.75;;;1.55;;
34405;SDS011;20658;45.630;8.886;2023-04-21T06:23:25;7.28;;;1.30;;
34405;SDS011;20658;45.630;8.886;2023-04-21T06:25:59;2.20;;;0.93;;
34405;SDS011;20658;45.630;8.886;2023-04-21T06:28:32;5.20;;;1.90;;
34405;SDS011;20658;45.630;8.886;2023-04-21T06:31:01;3.42;;;1.10;;
34405;SDS011;20658;45.630;8.886;2023-04-21T06:33:30;2.53;;;1.40;;
34405;SDS011;20658;45.630;8.886;2023-04-21T06:35:59;4.72;;;1.20;;
34405;SDS011;20658;45.630;8.886;2023-04-21T06:38:28;3.78;;;1.30;;
34405;SDS011;20658;45.630;8.886;2023-04-21T06:40:56;2.10;;;1.15;;
34405;SDS011;20658;45.630;8.886;2023-04-21T06:43:24;3.50;;;1.20;;
34405;SDS011;20658;45.630;8.886;2023-04-21T06:45:54;3.60;;;1.00;;
34405;SDS011;20658;45.630;8.886;2023-04-21T06:48:22;3.05;;;1.20;;
34405;SDS011;20658;45.630;8.886;2023-04-21T06:50:51;1.58;;;1.00;;
34405;SDS011;20658;45.630;8.886;2023-04-21T06:53:20;2.38;;;1.23;;
34405;SDS011;20658;45.630;8.886;2023-04-21T06:55:48;3.70;;;1.60;;
34405;SDS011;20658;45.630;8.886;2023-04-21T06:58:18;3.63;;;1.50;;
34405;SDS011;20658;45.630;8.886;2023-04-21T07:00:46;2.88;;;1.10;;
34405;SDS011;20658;45.630;8.886;2023-04-21T07:03:16;4.05;;;1.65;;
34405;SDS011;20658;45.630;8.886;2023-04-21T07:05:45;2.40;;;1.30;;
34405;SDS011;20658;45.630;8.886;2023-04-21T07:08:13;3.15;;;1.90;;
34405;SDS011;20658;45.630;8.886;2023-04-21T07:10:42;4.18;;;1.85;;
34405;SDS011;20658;45.630;8.886;2023-04-21T07:13:10;9.73;;;2.92;;
34405;SDS011;20658;45.630;8.886;2023-04-21T07:15:38;6.18;;;2.38;;
34405;SDS011;20658;45.630;8.886;2023-04-21T07:18:07;4.68;;;1.30;;
34405;SDS011;20658;45.630;8.886;2023-04-21T07:20:37;2.88;;;1.63;;
34405;SDS011;20658;45.630;8.886;2023-04-21T07:23:05;3.15;;;1.52;;
34405;SDS011;20658;45.630;8.886;2023-04-21T07:25:34;3.28;;;1.73;;
34405;SDS011;20658;45.630;8.886;2023-04-21T07:28:02;2.85;;;1.60;;
34405;SDS011;20658;45.630;8.886;2023-04-21T07:30:31;4.53;;;2.03;;
34405;SDS011;20658;45.630;8.886;2023-04-21T07:33:05;4.15;;;1.67;;
34405;SDS011;20658;45.630;8.886;2023-04-21T07:35:34;4.88;;;1.90;;
34405;SDS011;20658;45.630;8.886;2023-04-21T07:38:03;11.90;;;2.03;;
34405;SDS011;20658;45.630;8.886;2023-04-21T07:40:32;3.50;;;1.67;;
34405;SDS011;20658;45.630;8.886;2023-04-21T07:43:00;8.52;;;2.15;;
34405;SDS011;20658;45.630;8.886;2023-04-21T07:45:28;5.65;;;2.10;;
34405;SDS011;20658;45.630;8.886;2023-04-21T07:47:57;3.28;;;1.50;;
34405;SDS011;20658;45.630;8.886;2023-04-21T07:50:25;4.93;;;1.90;;
34405;SDS011;20658;45.630;8.886;2023-04-21T07:52:54;4.15;;;1.77;;
34405;SDS011;20658;45.630;8.886;2023-04-21T07:55:24;4.07;;;1.83;;
34405;SDS011;20658;45.630;8.886;2023-04-21T07:57:52;2.47;;;1.23;;
34405;SDS011;20658;45.630;8.886;2023-04-21T08:00:21;2.53;;;1.55;;
34405;SDS011;20658;45.630;8.886;2023-04-21T08:02:49;2.97;;;1.33;;
34405;SDS011;20658;45.630;8.886;2023-04-21T08:05:18;4.60;;;2.00;;
34405;SDS011;20658;45.630;8.886;2023-04-21T08:07:46;4.20;;;1.38;;
34405;SDS011;20658;45.630;8.886;2023-04-21T08:10:15;3.20;;;1.48;;
34405;SDS011;20658;45.630;8.886;2023-04-21T08:12:45;1.98;;;1.10;;
34405;SDS011;20658;45.630;8.886;2023-04-21T08:15:13;2.85;;;1.55;;
34405;SDS011;20658;45.630;8.886;2023-04-21T08:17:42;3.70;;;1.30;;
34405;SDS011;20658;45.630;8.886;2023-04-21T08:20:11;2.83;;;1.58;;
34405;SDS011;20658;45.630;8.886;2023-04-21T08:22:40;3.00;;;1.48;;
34405;SDS011;20658;45.630;8.886;2023-04-21T08:25:09;1.48;;;1.02;;
34405;SDS011;20658;45.630;8.886;2023-04-21T08:27:37;2.72;;;1.52;;
34405;SDS011;20658;45.630;8.886;2023-04-21T08:30:08;3.00;;;1.75;;
34405;SDS011;20658;45.630;8.886;2023-04-21T08:32:38;3.72;;;1.45;;
34405;SDS011;20658;45.630;8.886;2023-04-21T08:35:06;3.38;;;1.95;;
34405;SDS011;20658;45.630;8.886;2023-04-21T08:37:35;6.78;;;2.00;;
34405;SDS011;20658;45.630;8.886;2023-04-21T08:40:05;2.78;;;1.23;;
34405;SDS011;20658;45.630;8.886;2023-04-21T08:42:35;4.03;;;1.63;;
34405;SDS011;20658;45.630;8.886;2023-04-21T08:45:05;5.88;;;1.55;;
34405;SDS011;20658;45.630;8.886;2023-04-21T08:47:36;2.20;;;1.20;;
34405;SDS011;20658;45.630;8.886;2023-04-21T08:50:09;6.05;;;1.60;;
34405;SDS011;20658;45.630;8.886;2023-04-21T08:52:40;3.45;;;1.60;;
34405;SDS011;20658;45.630;8.886;2023-04-21T08:55:08;2.55;;;1.48;;
34405;SDS011;20658;45.630;8.886;2023-04-21T08:57:38;3.65;;;1.50;;
34405;SDS011;20658;45.630;8.886;2023-04-21T09:00:09;2.38;;;1.30;;
34405;SDS011;20658;45.630;8.886;2023-04-21T09:02:51;4.13;;;1.92;;
34405;SDS011;20658;45.630;8.886;2023-04-21T09:07:52;5.57;;;2.10;;
34405;SDS011;20658;45.630;8.886;2023-04-21T09:10:41;3.13;;;1.50;;
34405;SDS011;20658;45.630;8.886;2023-04-21T09:13:11;5.60;;;1.85;;
34405;SDS011;20658;45.630;8.886;2023-04-21T09:15:42;2.80;;;1.55;;
34405;SDS011;20658;45.630;8.886;2023-04-21T09:18:18;5.45;;;1.83;;
34405;SDS011;20658;45.630;8.886;2023-04-21T09:20:49;1.98;;;1.08;;
34405;SDS011;20658;45.630;8.886;2023-04-21T09:23:24;4.35;;;2.13;;
34405;SDS011;20658;45.630;8.886;2023-04-21T09:25:52;4.60;;;2.20;;
34405;SDS011;20658;45.630;8.886;2023-04-21T09:28:21;5.63;;;1.83;;
34405;SDS011;20658;45.630;8.886;2023-04-21T09:30:56;5.03;;;1.60;;
34405;SDS011;20658;45.630;8.886;2023-04-21T09:33:31;3.80;;;1.50;;
34405;SDS011;20658;45.630;8.886;2023-04-21T09:36:01;4.00;;;1.75;;
34405;SDS011;20658;45.630;8.886;2023-04-21T09:38:32;2.67;;;1.73;;
34405;SDS011;20658;45.630;8.886;2023-04-21T09:41:00;4.07;;;2.10;;
34405;SDS011;20658;45.630;8.886;2023-04-21T09:43:28;6.50;;;2.20;;
34405;SDS011;20658;45.630;8.886;2023-04-21T09:46:03;3.72;;;2.33;;
34405;SDS011;20658;45.630;8.886;2023-04-21T09:48:32;5.95;;;2.00;;
34405;SDS011;20658;45.630;8.886;2023-04-21T09:51:08;3.72;;;1.92;;
34405;SDS011;20658;45.630;8.886;2023-04-21T09:53:38;3.03;;;1.60;;
34405;SDS011;20658;45.630;8.886;2023-04-21T09:56:09;4.90;;;2.08;;
34405;SDS011;20658;45.630;8.886;2023-04-21T09:58:40;4.07;;;2.13;;
34405;SDS011;20658;45.630;8.886;2023-04-21T10:01:15;4.70;;;2.10;;
34405;SDS011;20658;45.630;8.886;2023-04-21T10:03:44;6.97;;;2.38;;
34405;SDS011;20658;45.630;8.886;2023-04-21T10:06:15;3.75;;;1.80;;
34405;SDS011;20658;45.630;8.886;2023-04-21T10:08:43;6.25;;;1.80;;
34405;SDS011;20658;45.630;8.886;2023-04-21T10:11:12;4.65;;;2.20;;
34405;SDS011;20658;45.630;8.886;2023-04-21T10:13:47;5.35;;;2.20;;
34405;SDS011;20658;45.630;8.886;2023-04-21T10:16:22;3.33;;;2.00;;
34405;SDS011;20658;45.630;8.886;2023-04-21T10:18:51;4.70;;;2.42;;
34405;SDS011;20658;45.630;8.886;2023-04-21T10:21:20;3.17;;;1.88;;
34405;SDS011;20658;45.630;8.886;2023-04-21T10:23:50;6.63;;;2.72;;
34405;SDS011;20658;45.630;8.886;2023-04-21T10:26:20;4.15;;;1.95;;
34405;SDS011;20658;45.630;8.886;2023-04-21T10:28:56;4.03;;;2.22;;
34405;SDS011;20658;45.630;8.886;2023-04-21T10:31:29;8.30;;;2.40;;
34405;SDS011;20658;45.630;8.886;2023-04-21T10:34:12;4.28;;;2.05;;
34405;SDS011;20658;45.630;8.886;2023-04-21T10:36:42;4.57;;;1.70;;
34405;SDS011;20658;45.630;8.886;2023-04-21T10:39:51;4.65;;;2.13;;
34405;SDS011;20658;45.630;8.886;2023-04-21T10:45:10;3.97;;;1.73;;
34405;SDS011;20658;45.630;8.886;2023-04-21T10:47:46;3.50;;;1.80;;
34405;SDS011;20658;45.630;8.886;2023-04-21T10:50:17;4.07;;;2.30;;
34405;SDS011;20658;45.630;8.886;2023-04-21T10:52:52;6.05;;;1.85;;
34405;SDS011;20658;45.630;8.886;2023-04-21T10:55:29;6.95;;;1.88;;
34405;SDS011;20658;45.630;8.886;2023-04-21T10:58:00;4.80;;;2.30;;
34405;SDS011;20658;45.630;8.886;2023-04-21T11:03:05;3.60;;;2.08;;
34405;SDS011;20658;45.630;8.886;2023-04-21T11:05:39;4.20;;;2.47;;
34405;SDS011;20658;45.630;8.886;2023-04-21T11:08:09;8.82;;;2.45;;
34405;SDS011;20658;45.630;8.886;2023-04-21T11:10:47;3.28;;;2.03;;
34405;SDS011;20658;45.630;8.886;2023-04-21T11:13:19;4.00;;;2.30;;
34405;SDS011;20658;45.630;8.886;2023-04-21T11:15:54;4.78;;;1.88;;
34405;SDS011;20658;45.630;8.886;2023-04-21T11:18:36;3.00;;;2.15;;
34405;SDS011;20658;45.630;8.886;2023-04-21T11:21:16;6.28;;;2.97;;
34405;SDS011;20658;45.630;8.886;2023-04-21T11:23:47;5.82;;;3.38;;
34405;SDS011;20658;45.630;8.886;2023-04-21T11:26:17;8.13;;;2.95;;
34405;SDS011;20658;45.630;8.886;2023-04-21T11:28:58;4.20;;;2.72;;
34405;SDS011;20658;45.630;8.886;2023-04-21T11:31:33;3.90;;;2.03;;
34405;SDS011;20658;45.630;8.886;2023-04-21T11:34:04;4.25;;;2.38;;
34405;SDS011;20658;45.630;8.886;2023-04-21T11:36:33;3.90;;;2.17;;
34405;SDS011;20658;45.630;8.886;2023-04-21T11:39:05;4.32;;;2.03;;
34405;SDS011;20658;45.630;8.886;2023-04-21T11:41:35;5.82;;;2.72;;
34405;SDS011;20658;45.630;8.886;2023-04-21T11:44:07;4.28;;;2.28;;
34405;SDS011;20658;45.630;8.886;2023-04-21T11:46:35;7.88;;;3.50;;
34405;SDS011;20658;45.630;8.886;2023-04-21T11:49:07;6.15;;;3.25;;
34405;SDS011;20658;45.630;8.886;2023-04-21T11:51:43;7.07;;;3.60;;
34405;SDS011;20658;45.630;8.886;2023-04-21T11:54:13;4.15;;;2.35;;
34405;SDS011;20658;45.630;8.886;2023-04-21T11:56:44;6.10;;;3.40;;
34405;SDS011;20658;45.630;8.886;2023-04-21T11:59:14;4.65;;;2.60;;
34405;SDS011;20658;45.630;8.886;2023-04-21T12:01:51;5.95;;;3.55;;
34405;SDS011;20658;45.630;8.886;2023-04-21T12:04:23;5.38;;;3.20;;
34405;SDS011;20658;45.630;8.886;2023-04-21T12:06:54;4.63;;;2.97;;
34405;SDS011;20658;45.630;8.886;2023-04-21T12:09:24;4.93;;;2.90;;
34405;SDS011;20658;45.630;8.886;2023-04-21T12:11:59;7.40;;;2.63;;
34405;SDS011;20658;45.630;8.886;2023-04-21T12:14:32;6.05;;;3.00;;
34405;SDS011;20658;45.630;8.886;2023-04-21T12:17:00;5.32;;;3.28;;
34405;SDS011;20658;45.630;8.886;2023-04-21T12:19:35;4.43;;;2.88;;
34405;SDS011;20658;45.630;8.886;2023-04-21T12:22:12;6.38;;;2.83;;
34405;SDS011;20658;45.630;8.886;2023-04-21T12:24:43;5.13;;;3.13;;
34405;SDS011;20658;45.630;8.886;2023-04-21T12:27:12;5.22;;;3.10;;
34405;SDS011;20658;45.630;8.886;2023-04-21T12:29:46;6.57;;;3.47;;
34405;SDS011;20658;45.630;8.886;2023-04-21T12:32:14;6.18;;;3.72;;
34405;SDS011;20658;45.630;8.886;2023-04-21T12:34:44;7.78;;;4.22;;
34405;SDS011;20658;45.630;8.886;2023-04-21T12:37:12;7.20;;;3.90;;
34405;SDS011;20658;45.630;8.886;2023-04-21T12:39:41;8.38;;;3.80;;
34405;SDS011;20658;45.630;8.886;2023-04-21T12:42:09;12.05;;;4.10;;
34405;SDS011;20658;45.630;8.886;2023-04-21T12:44:38;7.03;;;3.78;;
34405;SDS011;20658;45.630;8.886;2023-04-21T12:47:06;8.55;;;4.03;;
34405;SDS011;20658;45.630;8.886;2023-04-21T12:49:35;8.15;;;4.72;;
34405;SDS011;20658;45.630;8.886;2023-04-21T12:52:05;8.10;;;4.25;;
34405;SDS011;20658;45.630;8.886;2023-04-21T12:54:33;8.20;;;3.92;;
34405;SDS011;20658;45.630;8.886;2023-04-21T12:57:02;8.43;;;4.45;;
34405;SDS011;20658;45.630;8.886;2023-04-21T12:59:31;9.23;;;4.93;;
34405;SDS011;20658;45.630;8.886;2023-04-21T13:01:59;7.00;;;3.97;;
34405;SDS011;20658;45.630;8.886;2023-04-21T13:04:28;6.28;;;3.90;;
34405;SDS011;20658;45.630;8.886;2023-04-21T13:06:57;8.65;;;4.47;;
34405;SDS011;20658;45.630;8.886;2023-04-21T13:09:27;8.25;;;4.47;;
34405;SDS011;20658;45.630;8.886;2023-04-21T13:11:56;9.07;;;4.65;;
34405;SDS011;20658;45.630;8.886;2023-04-21T13:14:24;9.07;;;4.97;;
34405;SDS011;20658;45.630;8.886;2023-04-21T13:16:53;10.32;;;4.63;;
34405;SDS011;20658;45.630;8.886;2023-04-21T13:19:21;13.77;;;5.85;;
34405;SDS011;20658;45.630;8.886;2023-04-21T13:21:53;10.23;;;5.93;;
34405;SDS011;20658;45.630;8.886;2023-04-21T13:24:21;10.02;;;5.53;;
34405;SDS011;20658;45.630;8.886;2023-04-21T13:26:52;9.35;;;5.75;;
34405;SDS011;20658;45.630;8.886;2023-04-21T13:29:22;12.50;;;7.00;;
34405;SDS011;20658;45.630;8.886;2023-04-21T13:34:22;12.65;;;6.53;;
34405;SDS011;20658;45.630;8.886;2023-04-21T13:36:52;8.45;;;4.47;;
34405;SDS011;20658;45.630;8.886;2023-04-21T13:39:21;9.75;;;4.80;;
34405;SDS011;20658;45.630;8.886;2023-04-21T13:41:56;9.90;;;4.18;;
34405;SDS011;20658;45.630;8.886;2023-04-21T13:44:24;6.45;;;3.83;;
34405;SDS011;20658;45.630;8.886;2023-04-21T13:46:53;6.90;;;3.95;;
34405;SDS011;20658;45.630;8.886;2023-04-21T13:49:22;9.60;;;4.68;;
34405;SDS011;20658;45.630;8.886;2023-04-21T13:51:50;10.73;;;4.78;;
34405;SDS011;20658;45.630;8.886;2023-04-21T13:54:19;7.95;;;4.65;;
34405;SDS011;20658;45.630;8.886;2023-04-21T13:56:48;12.63;;;6.07;;
34405;SDS011;20658;45.630;8.886;2023-04-21T13:59:17;14.85;;;6.68;;
34405;SDS011;20658;45.630;8.886;2023-04-21T14:01:46;10.07;;;5.47;;
34405;SDS011;20658;45.630;8.886;2023-04-21T14:04:19;8.85;;;4.50;;
34405;SDS011;20658;45.630;8.886;2023-04-21T14:06:48;9.27;;;5.28;;
34405;SDS011;20658;45.630;8.886;2023-04-21T14:09:22;8.65;;;4.70;;
34405;SDS011;20658;45.630;8.886;2023-04-21T14:11:50;11.13;;;4.78;;
34405;SDS011;20658;45.630;8.886;2023-04-21T14:14:20;10.68;;;5.70;;
34405;SDS011;20658;45.630;8.886;2023-04-21T14:16:48;11.05;;;5.53;;
34405;SDS011;20658;45.630;8.886;2023-04-21T14:19:17;8.88;;;4.55;;
34405;SDS011;20658;45.630;8.886;2023-04-21T14:21:45;8.35;;;4.78;;
34405;SDS011;20658;45.630;8.886;2023-04-21T14:24:13;8.73;;;5.20;;
34405;SDS011;20658;45.630;8.886;2023-04-21T14:26:46;9.50;;;5.55;;
34405;SDS011;20658;45.630;8.886;2023-04-21T14:29:22;7.53;;;4.75;;
34405;SDS011;20658;45.630;8.886;2023-04-21T14:31:50;20.80;;;5.55;;
34405;SDS011;20658;45.630;8.886;2023-04-21T14:34:22;11.50;;;5.70;;
34405;SDS011;20658;45.630;8.886;2023-04-21T14:36:51;10.05;;;5.20;;
34405;SDS011;20658;45.630;8.886;2023-04-21T14:39:20;10.18;;;6.03;;
34405;SDS011;20658;45.630;8.886;2023-04-21T14:41:48;11.65;;;5.28;;
34405;SDS011;20658;45.630;8.886;2023-04-21T14:44:23;12.13;;;5.32;;
34405;SDS011;20658;45.630;8.886;2023-04-21T14:46:51;9.15;;;5.70;;
34405;SDS011;20658;45.630;8.886;2023-04-21T14:49:20;9.55;;;5.32;;
34405;SDS011;20658;45.630;8.886;2023-04-21T14:51:53;11.60;;;5.70;;
34405;SDS011;20658;45.630;8.886;2023-04-21T14:54:21;11.35;;;5.82;;
34405;SDS011;20658;45.630;8.886;2023-04-21T14:56:55;9.15;;;5.30;;
34405;SDS011;20658;45.630;8.886;2023-04-21T14:59:27;8.23;;;4.80;;
34405;SDS011;20658;45.630;8.886;2023-04-21T15:01:55;7.10;;;4.72;;
34405;SDS011;20658;45.630;8.886;2023-04-21T15:04:29;10.48;;;4.65;;
34405;SDS011;20658;45.630;8.886;2023-04-21T15:07:02;7.88;;;4.85;;
34405;SDS011;20658;45.630;8.886;2023-04-21T15:09:35;10.00;;;5.15;;
34405;SDS011;20658;45.630;8.886;2023-04-21T15:12:04;9.70;;;4.07;;
34405;SDS011;20658;45.630;8.886;2023-04-21T15:14:34;8.77;;;5.22;;
34405;SDS011;20658;45.630;8.886;2023-04-21T15:17:02;9.73;;;4.50;;